Terminal Aerodrome Forecast
Issued by NWS

Home | Current Version | Previous Version | Text Only | Print | Product List | Glossary On
Versions: 1 2 3 4 5 6 7 8 9 10 11 12 13 14 15 16 17 18
000
FTUS41 KBTV 291309 AAA
TAFRUT
TAF AMD
KRUT 291309Z 2913/3012 31007KT P6SM SCT008 OVC035
      TEMPO 2913/2916 BKN008 OVC028
     FM291600 33010G17KT P6SM OVC035
     FM291800 33010G20KT P6SM BKN045
     FM300000 32006KT P6SM OVC060=

USA.gov is the U.S. government's official web portal to all federal, state and local government web resources and services.